METAR Data
IDs: Format: Raw Decoded Include TAF

Data at: 1732 UTC 21 Sep 2018

KLZZ 211715Z AUTO 19008G14KT 10SM SCT027 BKN034 27/22 A2998 RMK AO2 T02710222
KLZZ 211655Z AUTO 19009G14KT 10SM SCT025 SCT031 27/22 A2997 RMK AO2 T02730222
KLZZ 211635Z AUTO 18010KT 10SM SCT023 SCT027 27/22 A2997 RMK AO2 LTG DSNT W T02710224
KLZZ 211615Z AUTO 19005G08KT 10SM SCT017 SCT024 SCT030 27/23 A2998 RMK AO2 T02660225
KLZZ 211555Z AUTO 18007KT 10SM BKN017 BKN024 OVC030 26/23 A2998 RMK AO2 LTG DSNT W T02590227
KLZZ 211535Z AUTO 18006KT 10SM SCT017 BKN024 BKN030 26/23 A2998 RMK AO2 LTG DSNT W T02600228
KLZZ 211515Z AUTO 18010G16KT 10SM SCT019 SCT024 26/23 A2997 RMK AO2 T02620227
KLZZ 211455Z AUTO 18009G15KT 10SM SCT021 SCT026 26/23 A2996 RMK AO2 LTG DSNT W T02600225
KLZZ 211435Z AUTO 17008KT 10SM SCT014 SCT021 BKN031 26/23 A2996 RMK AO2 T02550230
KLZZ 211415Z AUTO 17008KT 10SM SCT016 BKN021 OVC031 25/23 A2996 RMK AO2 LTG DSNT W T02510230
KLZZ 211355Z AUTO 17008KT 10SM BKN016 OVC022 25/23 A2996 RMK AO2 T02490227
KLZZ 211335Z AUTO 17005KT 10SM SCT019 SCT024 BKN110 25/23 A2996 RMK AO2 T02490228
KLZZ 211315Z AUTO 17007KT 10SM SCT016 SCT023 BKN110 25/23 A2995 RMK AO2 T02450227
KLZZ 211255Z AUTO 17006KT 10SM SCT016 BKN023 24/23 A2994 RMK AO2 T02420226
KLZZ 211135Z AUTO 17005KT 10SM SCT013 BKN021 OVC026 24/23 A2992 RMK AO2 T02420228
KLZZ 211115Z AUTO 16007KT 10SM SCT018 OVC026 24/23 A2992 RMK AO2 T02440227
KLZZ 211055Z AUTO 16005KT 10SM SCT012 BKN019 OVC032 24/23 A2992 RMK AO2 T02430227
KLZZ 211035Z AUTO 16005KT 10SM SCT012 BKN019 OVC024 24/23 A2992 RMK AO2 T02420227
KLZZ 211015Z AUTO 16004KT 10SM BKN019 OVC026 24/23 A2992 RMK AO2 LTG DSNT W T02400227
KLZZ 210955Z AUTO 15006KT 10SM SCT020 OVC026 24/23 A2992 RMK AO2 T02400227
KLZZ 210935Z AUTO 15005KT 10SM SCT020 OVC027 24/23 A2992 RMK AO2 LTG DSNT W T02400227
KLZZ 210915Z AUTO 16005KT 10SM SCT022 BKN029 BKN120 24/23 A2992 RMK AO2 T02400226
KLZZ 210855Z AUTO 17006KT 10SM SCT013 SCT028 SCT034 24/23 A2992 RMK AO2 T02400226
KLZZ 210835Z AUTO 17006KT 10SM SCT011 SCT016 SCT034 24/23 A2993 RMK AO2 T02400225
KLZZ 210815Z AUTO 18007KT 10SM SCT013 SCT020 BKN120 24/23 A2993 RMK AO2 T02400226
KLZZ 210755Z AUTO 17006KT 10SM SCT009 SCT013 OVC120 24/23 A2993 RMK AO2 T02400227
KLZZ 210735Z AUTO 17007KT 10SM BKN120 24/23 A2993 RMK AO2 T02390227
KLZZ 210715Z AUTO 17006KT 10SM SCT008 SCT024 SCT120 24/23 A2994 RMK AO2 T02380226
KLZZ 210655Z AUTO 17005KT 10SM BKN010 BKN015 BKN024 24/23 A2994 RMK AO2 T02360227
KLZZ 210635Z AUTO 15006KT 10SM OVC012 24/23 A2994 RMK AO2 T02350226
KLZZ 210615Z AUTO 15006KT 10SM SCT006 BKN016 BKN024 24/23 A2994 RMK AO2 T02350226
KLZZ 210335Z AUTO 15004KT 10SM BKN005 OVC010 22/22 A2996 RMK AO2 T02210215
KLZZ 210315Z AUTO 13005KT 10SM SCT005 OVC012 22/22 A2996 RMK AO2 T02210215
KLZZ 210255Z AUTO 12004KT 10SM BKN003 BKN009 OVC015 22/22 A2996 RMK AO2 T02200215
KLZZ 210235Z AUTO 12005KT 10SM OVC005 22/22 A2995 RMK AO2 T02200215
KLZZ 210215Z AUTO 13005KT 10SM BKN007 BKN011 OVC049 22/21 A2995 RMK AO2 T02190212
KLZZ 210155Z AUTO 13005KT 10SM SCT007 SCT040 OVC047 22/21 A2994 RMK AO2 T02190212
KLZZ 210035Z AUTO 17008KT 10SM SCT033 BKN060 OVC100 22/21 A2992 RMK AO2 T02200205
KLZZ 210015Z AUTO 16004KT 10SM SCT026 OVC033 22/21 A2992 RMK AO2 LTG DSNT E T02210205
KLZZ 202355Z AUTO 15011G16KT 10SM -RA SCT005 SCT021 BKN029 23/21 A2992 RMK AO2 60017 T02290212 10296 20211
KLZZ 202335Z AUTO 00000KT 10SM RA SCT005 SCT070 BKN080 23/22 A2990 RMK AO2 LTG DSNT E T02300220
KLZZ 202315Z AUTO 11005KT 10SM -RA BKN085 OVC110 23/22 A2991 RMK AO2 LTG DSNT E T02320216
KLZZ 202255Z AUTO 12005KT 10SM BKN100 BKN120 24/22 A2991 RMK AO2 T02360216
KLZZ 202235Z AUTO 13005KT 10SM SCT110 24/22 A2991 RMK AO2 LTG DSNT E T02360215
KLZZ 202215Z AUTO 14006KT 10SM BKN110 24/21 A2991 RMK AO2 LTG DSNT E T02350214
KLZZ 202155Z AUTO 12004KT 10SM VCTS BKN110 22/21 A2991 RMK AO2 LTG DSNT E P0017 T02240210
KLZZ 202135Z AUTO 12007KT 10SM VCTSRA SCT014 BKN070 OVC100 22/21 A2993 RMK AO2 LTG DSNT E AND SE P0017 T02200212
KLZZ 202115Z AUTO 18007KT 160V220 1 3/4SM +RA BKN013 BKN024 OVC044 21/20 A2994 RMK AO2 LTG DSNT SE P0016 T02130203
KLZZ 202055Z AUTO 20003KT 10SM -RA SCT032 SCT041 BKN060 25/21 A2993 RMK AO2 LTG DSNT SE AND NW T02460213
KLZZ 202035Z AUTO 15007KT 10SM VCTS BKN110 26/21 A2992 RMK AO2 LTG DSNT ALQS T02560206
KLZZ 202015Z AUTO 14007KT 10SM VCTS BKN120 26/20 A2991 RMK AO2 LTG DSNT ALQS T02600202
KLZZ 201955Z AUTO 13009KT 10SM SCT120 27/22 A2992 RMK AO2 LTG DSNT W THRU E T02660220
KLZZ 201935Z AUTO 15013G18KT 10SM SCT120 29/22 A2993 RMK AO2 LTG DSNT ALQS T02880223
KLZZ 201915Z AUTO 14009G14KT 10SM SCT028 SCT120 28/21 A2994 RMK AO2 LTG DSNT NE E AND SW T02770213
KLZZ 201855Z AUTO 15016G20KT 10SM SCT030 SCT036 SCT120 29/23 A2995 RMK AO2 LTG DSNT NE AND E T02870225
KLZZ 201835Z AUTO 17007KT 10SM SCT028 SCT036 SCT049 30/22 A2996 RMK AO2 LTG DSNT E AND SE T02950220
KLZZ 201815Z AUTO 22005KT 10SM -RA SCT026 SCT034 BKN050 28/23 A2996 RMK AO2 LTG DSNT E AND SE T02800225
KLZZ 201755Z AUTO 18007KT 10SM -RA SCT025 BKN034 BKN044 28/22 A2996 RMK AO2 LTG DSNT SE T02760220 10285 20215
KLZZ 201735Z AUTO 18007KT 10SM SCT022 BKN028 BKN036 28/22 A2997 RMK AO2 LTG DSNT E AND SE T02790223
KLZZ 201715Z AUTO 17007KT 10SM SCT023 BKN029 BKN034 28/23 A2999 RMK AO2 LTG DSNT SE T02760225
KLZZ 201655Z AUTO 19008KT 10SM SCT023 SCT029 27/22 A2999 RMK AO2 LTG DSNT SE AND S T02730224
KLZZ 201635Z AUTO 17006KT 10SM SCT021 SCT029 27/22 A2999 RMK AO2 T02720224
KLZZ 201615Z AUTO 15008KT 10SM SCT020 SCT026 SCT050 27/22 A2999 RMK AO2 T02720224
KLZZ 201555Z AUTO 17005KT 10SM SCT055 SCT080 27/23 A2999 RMK AO2 T02700226
KLZZ 201535Z AUTO 18008KT 10SM SCT022 SCT033 27/23 A3000 RMK AO2 LTG DSNT SE T02710225
KLZZ 201515Z AUTO 17008KT 10SM SCT016 SCT025 26/23 A2999 RMK AO2 T02620225
KLZZ 201455Z AUTO 17006KT 10SM SCT011 26/23 A2999 RMK AO2 T02590225
KLZZ 201435Z AUTO 18006KT 10SM SCT011 25/23 A2998 RMK AO2 T02540227
KLZZ 201415Z AUTO 19004KT 10SM SCT007 25/23 A2998 RMK AO2 T02470227
KLZZ 201355Z AUTO 19004KT 10SM SCT007 24/22 A2997 RMK AO2 T02400224
KLZZ 201335Z AUTO 00000KT 10SM CLR 23/22 A2997 RMK AO2 T02340221
KLZZ 201315Z AUTO 00000KT 10SM CLR 23/22 A2996 RMK AO2 T02300219
KLZZ 201155Z AUTO 00000KT 10SM CLR 22/21 A2995 RMK AO2 T02170208 10240 20215
KLZZ 201035Z AUTO 00000KT 10SM CLR 23/21 A2994 RMK AO2 T02250210
KLZZ 201015Z AUTO 00000KT 10SM CLR 23/21 A2994 RMK AO2 T02270212
KLZZ 200955Z AUTO 00000KT 10SM CLR 23/21 A2994 RMK AO2 T02270212
KLZZ 200935Z AUTO 00000KT 10SM CLR 23/21 A2994 RMK AO2 T02250213
KLZZ 200915Z AUTO 00000KT 10SM CLR 23/21 A2994 RMK AO2 T02250211
KLZZ 200855Z AUTO 00000KT 10SM CLR 23/21 A2994 RMK AO2 T02260210
KLZZ 200835Z AUTO 00000KT 10SM CLR 23/21 A2995 RMK AO2 T02260210
KLZZ 200815Z AUTO 00000KT 10SM CLR 23/21 A2996 RMK AO2 T02300211
KLZZ 200755Z AUTO 00000KT 10SM CLR 24/21 A2996 RMK AO2 T02350212
KLZZ 200735Z AUTO 15003KT 10SM CLR 24/21 A2997 RMK AO2 T02380212
KLZZ 200715Z AUTO 16003KT 10SM CLR 24/21 A2996 RMK AO2 T02360211
KLZZ 200655Z AUTO 00000KT 10SM CLR 24/21 A2996 RMK AO2 T02350210
KLZZ 200635Z AUTO 18003KT 10SM CLR 24/21 A2996 RMK AO2 T02390207
KLZZ 200615Z AUTO 17004KT 10SM CLR 24/21 A2997 RMK AO2 T02370205
KLZZ 200555Z AUTO 18003KT 10SM CLR 24/20 A2997 RMK AO2 T02350203 10305 20231 403270208
KLZZ 200535Z AUTO 00000KT 10SM CLR 24/20 A2997 RMK AO2 T02350203